Time;durP1;ratioP1;P1;durP2;ratioP2;P2;SDS_P1;SDS_P2;PMS_P1;PMS_P2;Temp;Humidity;BMP_temperature;BMP_pressure;BME280_temperature;BME280_humidity;BME280_pressure;Samples;Min_cycle;Max_cycle;Signal;HPM_P1;HPM_P2
2020/12/06 00:00:08;;;;;;;40.80;36.85;;;;;;;6.13;62.50;100245.06;5064862;28;20031;-75
2020/12/06 00:02:34;;;;;;;;;;;;;;;6.01;62.44;100245.53;5061090;28;20111;-75
2020/12/06 00:04:59;;;;;;;35.80;32.03;;;;;;;5.99;62.55;100249.41;5064989;28;20039;-75
2020/12/06 00:07:24;;;;;;;33.88;30.38;;;;;;;5.85;62.55;100246.44;5063705;28;20033;-75
2020/12/06 00:09:50;;;;;;;35.70;32.20;;;;;;;5.84;63.11;100243.91;5065800;28;20074;-75
2020/12/06 00:12:15;;;;;;;30.48;26.92;;;;;;;5.78;62.80;100239.25;5062957;28;20033;-75
2020/12/06 00:14:41;;;;;;;42.88;38.78;;;;;;;5.71;62.37;100233.75;5064976;28;20052;-75
2020/12/06 00:17:06;;;;;;;36.63;32.70;;;;;;;5.71;63.04;100229.16;5063860;28;20040;-75
2020/12/06 00:19:31;;;;;;;38.97;34.63;;;;;;;5.68;63.31;100229.53;5064552;28;20036;-75
2020/12/06 00:21:57;;;;;;;39.22;35.35;;;;;;;5.68;63.47;100226.84;5064016;28;20170;-75
2020/12/06 00:24:22;;;;;;;37.85;33.83;;;;;;;5.65;63.29;100232.59;5064559;28;20028;-75
2020/12/06 00:26:48;;;;;;;33.05;28.98;;;;;;;5.67;63.18;100230.56;5063041;28;20028;-75
2020/12/06 00:29:13;;;;;;;37.97;34.33;;;;;;;5.70;63.26;100232.06;5063780;28;20494;-75
2020/12/06 00:31:38;;;;;;;42.33;38.05;;;;;;;5.68;63.05;100228.69;5060864;28;20040;-75
2020/12/06 00:34:04;;;;;;;44.08;39.67;;;;;;;5.63;62.84;100226.53;5062196;28;20033;-74
2020/12/06 00:36:29;;;;;;;41.97;37.55;;;;;;;5.54;62.75;100223.06;5065040;28;20032;-75
2020/12/06 00:38:55;;;;;;;66.22;59.28;;;;;;;5.56;63.28;100226.44;5065216;28;20111;-75
2020/12/06 00:41:22;;;;;;;47.30;41.53;;;;;;;5.54;63.24;100227.63;5064780;28;20068;-75
2020/12/06 00:43:48;;;;;;;51.75;46.60;;;;;;;5.50;63.11;100237.06;5067976;28;20029;-75
2020/12/06 00:46:19;;;;;;;38.03;34.17;;;;;;;5.47;63.19;100243.69;5066646;28;20469;-75
2020/12/06 00:48:45;;;;;;;36.55;32.78;;;;;;;5.41;63.44;100247.09;5068207;28;20040;-75
2020/12/06 00:51:11;;;;;;;43.38;39.65;;;;;;;5.46;64.60;100238.47;5074486;28;20036;-75
2020/12/06 00:53:36;;;;;;;35.70;32.05;;;;;;;5.55;64.73;100227.44;5067623;28;20059;-75
2020/12/06 00:56:01;;;;;;;29.85;26.75;;;;;;;5.64;63.98;100232.78;5067627;28;20565;-75
2020/12/06 00:58:27;;;;;;;31.35;28.27;;;;;;;5.61;63.83;100228.59;5068593;28;20036;-75
2020/12/06 01:00:52;;;;;;;37.30;34.03;;;;;;;5.61;63.80;100223.19;5067904;28;20036;-75
2020/12/06 01:03:18;;;;;;;37.90;34.60;;;;;;;5.58;63.46;100215.47;5066090;28;20503;-75
2020/12/06 01:05:43;;;;;;;37.00;33.63;;;;;;;5.53;63.25;100207.06;5067996;28;20032;-75
2020/12/06 01:08:08;;;;;;;37.08;33.90;;;;;;;5.35;63.28;100224.38;5063638;28;20021;-75
2020/12/06 01:10:34;;;;;;;31.95;28.80;;;;;;;5.34;63.64;100228.06;5068931;28;20043;-75
2020/12/06 01:12:59;;;;;;;34.63;31.50;;;;;;;5.31;63.70;100228.41;5067675;28;20116;-75
2020/12/06 01:15:26;;;;;;;29.90;27.33;;;;;;;5.27;63.67;100227.13;5070121;28;20648;-75
2020/12/06 01:17:51;;;;;;;30.17;27.35;;;;;;;5.27;63.63;100228.97;5067971;28;20502;-75
2020/12/06 01:20:16;;;;;;;29.00;26.60;;;;;;;5.24;63.84;100242.81;5065422;28;20067;-75
2020/12/06 01:22:42;;;;;;;31.17;28.40;;;;;;;5.24;63.57;100232.03;5065042;28;20036;-76
2020/12/06 01:25:07;;;;;;;31.02;28.15;;;;;;;5.18;63.74;100231.69;5047687;28;20024;-75
2020/12/06 01:27:33;;;;;;;44.85;41.22;;;;;;;5.17;63.71;100237.28;5068238;28;20067;-75
2020/12/06 01:29:58;;;;;;;38.80;35.53;;;;;;;5.18;63.80;100255.13;5064939;28;20552;-75
2020/12/06 01:32:23;;;;;;;38.10;34.72;;;;;;;5.15;63.88;100248.22;5068209;28;20029;-75
2020/12/06 01:34:49;;;;;;;37.15;33.83;;;;;;;5.06;64.40;100256.53;5065929;28;20037;-75
2020/12/06 01:37:15;;;;;;;35.00;31.95;;;;;;;5.12;63.83;100253.97;5066808;28;20037;-75
2020/12/06 01:39:40;;;;;;;32.67;29.80;;;;;;;5.14;63.66;100251.09;5067108;28;20082;-75
2020/12/06 01:42:06;;;;;;;30.00;27.20;;;;;;;5.16;63.69;100246.38;5065231;28;20542;-75
2020/12/06 01:44:31;;;;;;;39.83;36.55;;;;;;;5.14;63.50;100248.41;5065707;28;20028;-75
2020/12/06 01:46:57;;;;;;;32.83;30.02;;;;;;;5.02;63.47;100235.31;5071443;28;20028;-75
2020/12/06 01:49:35;;;;;;;36.20;33.30;;;;;;;4.96;63.08;100249.50;5062240;28;20040;-75
2020/12/06 01:52:01;;;;;;;47.78;44.08;;;;;;;4.89;63.26;100244.97;5068152;28;20538;-75
2020/12/06 01:54:27;;;;;;;38.20;35.17;;;;;;;4.83;63.35;100236.59;5067872;28;20077;-75
2020/12/06 01:56:52;;;;;;;29.10;26.55;;;;;;;4.78;63.51;100241.63;5067558;28;20024;-75
2020/12/06 01:59:18;;;;;;;26.27;23.90;;;;;;;4.77;63.59;100245.38;5065069;28;20032;-75
2020/12/06 02:01:56;;;;;;;35.65;32.60;;;;;;;4.79;63.92;100245.19;5065116;28;20086;-75
2020/12/06 02:04:23;;;;;;;30.67;27.92;;;;;;;4.79;63.81;100245.19;5065124;28;20090;-75
2020/12/06 02:06:49;;;;;;;33.25;30.15;;;;;;;4.91;63.56;100245.63;5066269;28;20642;-75
2020/12/06 02:09:14;;;;;;;37.03;33.92;;;;;;;4.91;63.61;100237.56;5068818;28;20041;-75
2020/12/06 02:11:40;;;;;;;28.88;26.20;;;;;;;4.95;63.70;100241.59;5063811;28;20093;-75
2020/12/06 02:14:05;;;;;;;26.80;24.27;;;;;;;4.94;63.67;100256.94;5068446;28;20493;-75
2020/12/06 02:16:30;;;;;;;29.80;27.20;;;;;;;4.90;63.71;100255.59;5065211;28;20086;-75
2020/12/06 02:18:56;;;;;;;30.63;27.88;;;;;;;4.95;64.12;100258.59;5063351;28;20039;-75
2020/12/06 02:21:21;;;;;;;31.77;29.05;;;;;;;4.98;64.09;100260.94;5067176;28;20040;-75
2020/12/06 02:23:47;;;;;;;24.08;20.42;;;;;;;4.99;64.02;100262.63;5063885;28;20094;-75
2020/12/06 02:26:12;;;;;;;26.88;24.30;;;;;;;5.00;64.38;100269.69;5065473;28;20037;-75
2020/12/06 02:28:38;;;;;;;28.05;25.23;;;;;;;4.79;64.79;100282.91;5066047;28;20025;-75
2020/12/06 02:31:03;;;;;;;33.88;30.90;;;;;;;4.96;64.61;100270.22;5065831;28;20036;-75
2020/12/06 02:33:29;;;;;;;48.05;44.08;;;;;;;5.05;64.35;100265.63;5048152;28;20051;-75
2020/12/06 02:35:54;;;;;;;32.85;29.85;;;;;;;5.10;64.18;100265.97;5066032;28;20037;-75
2020/12/06 02:38:20;;;;;;;33.38;30.35;;;;;;;5.06;63.87;100262.75;5070540;28;20513;-75
2020/12/06 02:40:45;;;;;;;36.60;33.55;;;;;;;5.04;63.76;100269.34;5065060;28;20040;-75
2020/12/06 02:43:10;;;;;;;42.60;39.13;;;;;;;4.95;63.56;100276.63;5068094;28;20479;-75
2020/12/06 02:45:36;;;;;;;35.50;32.60;;;;;;;4.88;63.55;100273.78;5081888;28;20032;-75
2020/12/06 02:48:01;;;;;;;38.22;35.08;;;;;;;4.81;63.55;100278.19;5066981;28;20028;-75
2020/12/06 02:50:27;;;;;;;34.83;31.98;;;;;;;4.74;63.62;100264.56;5065390;28;20469;-75
2020/12/06 02:52:57;;;;;;;47.22;43.47;;;;;;;4.66;63.36;100273.50;5063251;28;20085;-75
2020/12/06 02:55:26;;;;;;;46.37;42.80;;;;;;;4.66;63.78;100270.81;5061558;28;20040;-75
2020/12/06 02:57:52;;;;;;;44.63;41.25;;;;;;;4.70;63.83;100273.16;5063974;28;20041;-75
2020/12/06 03:00:17;;;;;;;53.00;48.90;;;;;;;4.70;63.94;100281.25;5062903;28;20039;-75
2020/12/06 03:02:43;;;;;;;59.95;55.42;;;;;;;4.72;64.03;100271.13;5064289;28;20040;-75
2020/12/06 03:05:08;;;;;;;39.72;35.88;;;;;;;4.69;63.90;100268.78;5067490;28;20036;-75
2020/12/06 03:07:34;;;;;;;38.30;35.22;;;;;;;4.71;63.96;100277.53;5063630;28;20040;-75
2020/12/06 03:09:59;;;;;;;33.38;30.50;;;;;;;4.74;63.92;100277.16;5066315;28;20028;-75
2020/12/06 03:12:24;;;;;;;32.67;29.27;;;;;;;4.74;64.41;100266.41;5062043;28;20059;-75
2020/12/06 03:14:50;;;;;;;40.25;36.83;;;;;;;4.78;64.28;100265.06;5082340;28;20036;-75
2020/12/06 03:17:15;;;;;;;38.63;35.38;;;;;;;4.73;64.03;100253.97;5063049;28;20048;-75
2020/12/06 03:19:41;;;;;;;40.85;37.53;;;;;;;4.68;63.83;100261.69;5064032;28;20087;-75
2020/12/06 03:22:06;;;;;;;35.05;32.17;;;;;;;4.65;63.74;100249.44;5059845;28;20044;-75
2020/12/06 03:24:31;;;;;;;37.95;34.65;;;;;;;4.61;63.67;100253.47;5067694;28;20036;-75
2020/12/06 03:26:57;;;;;;;39.00;35.58;;;;;;;4.57;63.96;100261.06;5060417;28;20153;-75
2020/12/06 03:29:22;;;;;;;34.63;31.52;;;;;;;4.57;63.66;100257.53;5062826;28;20114;-75
2020/12/06 03:31:48;;;;;;;39.58;36.17;;;;;;;4.52;63.82;100263.41;5062860;28;20029;-75
2020/12/06 03:34:13;;;;;;;54.53;50.22;;;;;;;4.50;63.86;100261.94;5065699;28;20029;-75
2020/12/06 03:36:38;;;;;;;56.70;52.13;;;;;;;4.48;64.05;100272.88;5067268;28;20036;-75
2020/12/06 03:39:04;;;;;;;32.80;29.85;;;;;;;4.48;63.76;100267.50;5065178;28;20786;-75
2020/12/06 03:41:29;;;;;;;37.55;34.28;;;;;;;4.41;63.88;100269.16;5067988;28;20060;-75
2020/12/06 03:43:55;;;;;;;41.17;37.45;;;;;;;4.50;64.40;100270.00;5065096;28;20035;-75
2020/12/06 03:46:20;;;;;;;50.65;45.97;;;;;;;4.60;65.85;100276.03;5063762;28;20037;-75
2020/12/06 03:48:46;;;;;;;48.00;43.80;;;;;;;4.71;64.93;100277.53;5063875;28;20037;-75
2020/12/06 03:51:11;;;;;;;48.58;44.33;;;;;;;4.77;64.56;100275.00;5065319;28;20406;-75
2020/12/06 03:53:36;;;;;;;40.53;36.63;;;;;;;4.81;64.71;100272.78;5066826;28;20028;-75
2020/12/06 03:56:02;;;;;;;45.63;41.65;;;;;;;4.84;64.41;100264.34;5066436;28;20032;-75
2020/12/06 03:58:27;;;;;;;45.83;41.58;;;;;;;4.83;63.99;100263.53;5063870;28;20039;-75
2020/12/06 04:00:53;;;;;;;43.95;39.97;;;;;;;4.86;64.38;100265.00;5064069;28;20792;-75
2020/12/06 04:03:18;;;;;;;35.72;32.15;;;;;;;4.81;64.16;100265.53;5061409;28;20394;-75
2020/12/06 04:05:43;;;;;;;36.67;33.13;;;;;;;4.76;63.91;100261.69;5069004;28;20363;-75
2020/12/06 04:08:09;;;;;;;47.58;43.65;;;;;;;4.66;63.95;100262.72;5061676;28;20043;-75
2020/12/06 04:10:34;;;;;;;52.10;47.78;;;;;;;4.64;63.92;100262.03;5064279;28;20752;-75
2020/12/06 04:13:00;;;;;;;42.22;38.35;;;;;;;4.58;63.84;100262.72;5068092;28;20055;-75
2020/12/06 04:15:25;;;;;;;38.88;35.45;;;;;;;4.48;63.68;100262.09;5067384;28;20036;-75
2020/12/06 04:17:50;;;;;;;31.58;28.58;;;;;;;4.39;64.00;100265.81;5069968;28;20098;-75
2020/12/06 04:20:16;;;;;;;36.40;33.08;;;;;;;4.39;64.13;100263.13;5067169;28;20032;-75
2020/12/06 04:22:41;;;;;;;37.78;34.25;;;;;;;4.40;64.69;100268.34;5069247;28;20055;-77
2020/12/06 04:25:07;;;;;;;33.33;30.15;;;;;;;4.42;64.70;100263.63;5067538;28;20025;-75
2020/12/06 04:27:32;;;;;;;33.90;30.42;;;;;;;4.57;64.45;100268.28;5078437;28;20059;-75
2020/12/06 04:29:57;;;;;;;34.50;31.23;;;;;;;4.62;64.60;100260.56;5069351;28;20124;-75
2020/12/06 04:32:23;;;;;;;36.85;33.13;;;;;;;4.65;64.66;100261.03;5069941;28;20032;-75
2020/12/06 04:34:48;;;;;;;35.42;31.65;;;;;;;4.71;64.66;100259.53;5067772;28;20491;-75
2020/12/06 04:37:14;;;;;;;48.90;44.25;;;;;;;4.75;64.69;100265.41;5066628;28;20033;-75
2020/12/06 04:39:39;;;;;;;41.38;37.05;;;;;;;4.78;65.30;100265.88;5068466;28;20402;-75
2020/12/06 04:42:05;;;;;;;36.55;30.92;;;;;;;4.81;65.24;100281.69;5070564;28;20590;-75
2020/12/06 04:44:31;;;;;;;41.40;36.97;;;;;;;4.86;65.42;100281.19;5068769;28;20045;-74
2020/12/06 04:47:02;;;;;;;41.90;37.70;;;;;;;4.93;65.86;100279.47;5049986;28;20039;-75
2020/12/06 04:49:46;;;;;;;37.17;33.20;;;;;;;4.97;65.55;100279.97;5066419;28;20021;-75
2020/12/06 04:52:17;;;;;;;38.25;34.15;;;;;;;4.95;65.43;100282.00;5066756;28;20044;-74
2020/12/06 04:54:49;;;;;;;42.17;37.78;;;;;;;4.95;65.54;100276.63;5068837;28;20036;-74
2020/12/06 04:57:18;;;;;;;38.38;34.20;;;;;;;4.98;65.52;100282.47;5068422;28;20059;-74
2020/12/06 04:59:46;;;;;;;37.97;33.25;;;;;;;4.98;65.31;100279.78;5068479;28;20110;-74
2020/12/06 05:02:18;;;;;;;41.33;36.83;;;;;;;5.04;65.10;100289.03;5068034;28;20120;-74
2020/12/06 05:04:47;;;;;;;48.85;44.15;;;;;;;5.04;65.06;100283.66;5067790;28;20029;-75
2020/12/06 05:07:16;;;;;;;46.95;42.38;;;;;;;5.04;64.98;100286.34;5067858;28;20035;-74
2020/12/06 05:09:43;;;;;;;42.80;38.45;;;;;;;4.99;64.76;100283.34;5064500;28;20033;-74
2020/12/06 05:12:09;;;;;;;39.88;35.80;;;;;;;4.98;65.08;100284.34;5067395;28;20033;-74
2020/12/06 05:14:34;;;;;;;38.83;34.78;;;;;;;4.97;65.04;100280.81;5069080;28;20033;-74
2020/12/06 05:17:01;;;;;;;48.47;43.33;;;;;;;4.95;65.34;100280.13;5066139;28;20772;-75
2020/12/06 05:19:27;;;;;;;42.55;38.25;;;;;;;5.00;65.50;100279.63;5072513;28;20032;-75
2020/12/06 05:21:53;;;;;;;37.58;33.63;;;;;;;5.02;65.05;100286.53;5066236;28;21599;-74
2020/12/06 05:24:19;;;;;;;44.70;39.85;;;;;;;5.01;65.07;100284.84;5065945;28;20029;-74
2020/12/06 05:26:44;;;;;;;39.95;35.67;;;;;;;5.00;64.77;100276.91;5065351;28;20037;-74
2020/12/06 05:29:11;;;;;;;47.10;42.30;;;;;;;4.94;64.83;100278.47;5068540;28;20035;-74
2020/12/06 05:31:37;;;;;;;43.65;39.40;;;;;;;4.87;64.82;100282.88;5068538;28;20618;-74
2020/12/06 05:34:02;;;;;;;37.92;33.95;;;;;;;4.84;64.57;100285.91;5069181;28;20036;-75
2020/12/06 05:36:27;;;;;;;31.55;28.13;;;;;;;4.79;64.63;100278.34;5067187;28;20064;-74
2020/12/06 05:38:53;;;;;;;41.38;37.30;;;;;;;4.75;64.65;100276.16;5066885;28;20052;-75
2020/12/06 05:41:18;;;;;;;43.90;39.72;;;;;;;4.71;64.50;100282.91;5061334;28;20037;-75
2020/12/06 05:43:44;;;;;;;38.17;34.40;;;;;;;4.66;64.39;100270.81;5068921;28;20028;-75
2020/12/06 05:46:11;;;;;;;39.55;35.67;;;;;;;4.61;64.48;100278.53;5067689;28;20773;-75
2020/12/06 05:48:38;;;;;;;32.55;29.25;;;;;;;4.60;64.51;100279.59;5068207;28;21251;-75
2020/12/06 05:51:04;;;;;;;42.13;38.28;;;;;;;4.57;64.26;100281.75;5065527;28;20039;-74
2020/12/06 05:53:31;;;;;;;30.58;27.25;;;;;;;4.55;64.30;100281.94;5068948;28;20035;-74
2020/12/06 05:56:06;;;;;;;29.35;26.27;;;;;;;4.51;64.25;100282.44;5065085;28;20020;-74
2020/12/06 05:58:32;;;;;;;45.90;41.75;;;;;;;4.48;64.15;100276.41;5066858;28;20035;-74
2020/12/06 06:00:59;;;;;;;41.33;37.33;;;;;;;4.47;64.12;100281.94;5067085;28;20033;-74
2020/12/06 06:03:28;;;;;;;38.35;34.75;;;;;;;4.46;64.34;100289.19;5064431;28;20050;-74
2020/12/06 06:05:55;;;;;;;40.33;36.28;;;;;;;4.47;64.27;100285.47;5066667;28;20107;-74
2020/12/06 06:08:24;;;;;;;37.85;34.15;;;;;;;4.44;64.30;100287.69;5066740;28;20182;-74
2020/12/06 06:11:07;;;;;;;38.92;35.30;;;;;;;4.36;64.02;100283.13;5061847;28;20028;-74
2020/12/06 06:13:39;;;;;;;35.85;32.45;;;;;;;4.35;64.22;100277.94;5065302;28;20036;-74
2020/12/06 06:16:06;;;;;;;29.77;26.70;;;;;;;4.32;64.19;100283.66;5080931;28;20021;-74
2020/12/06 06:18:31;;;;;;;46.28;41.95;;;;;;;4.32;64.38;100279.09;5068524;28;20060;-74
2020/12/06 06:20:57;;;;;;;40.00;36.08;;;;;;;4.38;64.54;100286.50;5080062;28;20060;-74
2020/12/06 06:23:24;;;;;;;48.80;43.83;;;;;;;4.44;64.82;100282.28;5064592;28;20460;-74
2020/12/06 06:25:49;;;;;;;41.60;37.53;;;;;;;4.51;64.51;100283.31;5070665;28;20035;-74
2020/12/06 06:28:16;;;;;;;39.38;35.35;;;;;;;4.56;64.74;100283.63;5065858;28;20028;-75
2020/12/06 06:30:42;;;;;;;40.00;35.72;;;;;;;4.61;64.78;100285.78;5065972;28;20059;-74
2020/12/06 06:33:13;;;;;;;39.58;35.63;;;;;;;4.61;64.86;100283.09;5065306;28;20487;-74
2020/12/06 06:35:58;;;;;;;44.60;40.17;;;;;;;4.70;65.16;100278.56;5078894;28;20040;-75
2020/12/06 06:38:25;;;;;;;47.92;43.22;;;;;;;4.79;64.75;100274.81;5065119;28;20029;-74
2020/12/06 06:40:51;;;;;;;53.25;48.28;;;;;;;4.80;64.74;100280.03;5063671;28;20041;-74
2020/12/06 06:43:17;;;;;;;48.72;43.83;;;;;;;4.83;64.91;100281.53;5065461;28;20055;-75
2020/12/06 06:45:44;;;;;;;50.33;45.60;;;;;;;4.83;64.68;100274.31;5065222;28;20036;-74
2020/12/06 06:48:15;;;;;;;60.92;55.38;;;;;;;4.86;64.75;100283.88;5064871;28;20036;-74
2020/12/06 06:50:40;;;;;;;45.15;40.72;;;;;;;4.92;65.21;100279.66;5063575;28;20051;-74
2020/12/06 06:53:05;;;;;;;51.10;46.28;;;;;;;4.99;65.03;100284.19;5063468;28;20558;-74
2020/12/06 06:56:08;;;;;;;46.75;41.95;;;;;;;4.98;64.77;100276.28;5066959;28;20036;-74
2020/12/06 06:58:35;;;;;;;39.90;35.65;;;;;;;5.03;64.68;100284.66;5059305;28;20126;-74
2020/12/06 07:01:20;;;;;;;44.25;39.63;;;;;;;5.05;65.42;100287.19;5064188;28;20041;-74
2020/12/06 07:03:54;;;;;;;48.28;43.40;;;;;;;5.10;65.32;100287.53;5061439;28;20029;-74
2020/12/06 07:06:47;;;;;;;50.22;45.45;;;;;;;5.15;65.13;100288.66;5065263;28;20025;-75
2020/12/06 07:09:24;;;;;;;58.72;53.25;;;;;;;5.23;64.98;100284.25;5063493;28;20032;-74
2020/12/06 07:11:53;;;;;;;56.53;51.20;;;;;;;5.27;65.37;100280.19;5066108;28;20033;-74
2020/12/06 07:14:21;;;;;;;48.63;43.83;;;;;;;5.32;65.29;100284.03;5075176;28;20406;-74
2020/12/06 07:16:47;;;;;;;59.28;53.53;;;;;;;5.38;65.37;100291.41;5064373;28;20020;-74
2020/12/06 07:19:12;;;;;;;58.38;53.08;;;;;;;5.40;65.92;100282.31;5062445;28;20447;-74
2020/12/06 07:21:38;;;;;;;59.95;54.45;;;;;;;5.48;65.58;100279.56;5066783;28;20052;-75
2020/12/06 07:24:04;;;;;;;54.47;49.40;;;;;;;5.53;65.51;100280.72;5062853;28;20036;-74
2020/12/06 07:26:31;;;;;;;48.75;43.88;;;;;;;5.41;66.41;100276.75;5066482;28;20056;-74
2020/12/06 07:28:57;;;;;;;45.85;41.30;;;;;;;5.51;66.34;100277.34;5064621;28;20028;-75
2020/12/06 07:31:24;;;;;;;47.53;42.92;;;;;;;5.63;66.00;100280.50;5067240;28;20035;-75
2020/12/06 07:33:49;;;;;;;46.40;41.42;;;;;;;5.66;65.89;100296.31;5076074;28;20028;-75
2020/12/06 07:36:15;;;;;;;42.00;37.42;;;;;;;5.71;65.68;100299.31;5063625;28;20039;-75
2020/12/06 07:38:41;;;;;;;50.17;45.30;;;;;;;5.74;65.78;100298.97;5066325;28;20033;-76
2020/12/06 07:41:07;;;;;;;43.33;38.92;;;;;;;5.76;65.41;100290.69;5062820;28;20052;-75
2020/12/06 07:43:33;;;;;;;42.35;37.85;;;;;;;5.82;65.61;100305.34;5063584;28;20044;-75
2020/12/06 07:46:13;;;;;;;42.15;37.70;;;;;;;5.80;65.94;100301.97;5063745;28;20467;-75
2020/12/06 07:48:39;;;;;;;44.05;39.45;;;;;;;5.86;65.89;100309.38;5071488;28;20444;-75
2020/12/06 07:51:04;;;;;;;45.55;40.97;;;;;;;5.89;65.60;100311.69;5069041;28;20036;-76
2020/12/06 07:53:51;;;;;;;45.95;41.40;;;;;;;5.88;65.60;100310.00;5069120;28;20029;-76
2020/12/06 07:56:23;;;;;;;51.60;46.33;;;;;;;5.95;65.64;100312.81;5068482;28;20037;-75
2020/12/06 07:59:14;;;;;;;45.80;40.95;;;;;;;5.95;65.70;100302.88;5067876;28;20079;-75
2020/12/06 08:01:41;;;;;;;45.85;41.15;;;;;;;5.97;66.02;100300.88;5068238;28;20758;-75
2020/12/06 08:04:09;;;;;;;46.03;41.17;;;;;;;6.03;65.93;100302.03;5069439;28;20483;-76
2020/12/06 08:06:35;;;;;;;44.65;40.05;;;;;;;5.96;66.14;100296.44;5066209;28;20033;-75
2020/12/06 08:09:03;;;;;;;46.60;41.83;;;;;;;5.90;66.37;100299.88;5068162;28;20033;-75
2020/12/06 08:11:37;;;;;;;43.53;38.90;;;;;;;6.09;66.03;100304.84;5066776;28;20031;-75
2020/12/06 08:14:04;;;;;;;52.05;46.92;;;;;;;6.16;65.92;100301.41;5069968;28;20024;-75
2020/12/06 08:16:29;;;;;;;45.20;40.42;;;;;;;6.15;66.06;100305.97;5066971;28;20029;-75
2020/12/06 08:19:02;;;;;;;43.63;39.03;;;;;;;6.13;66.08;100305.31;5066260;28;20440;-75
2020/12/06 08:21:44;;;;;;;45.13;40.38;;;;;;;6.21;66.04;100310.66;5066942;28;20032;-75
2020/12/06 08:24:24;;;;;;;;;;;;;;;6.25;65.95;100305.72;5069008;28;20036;-76
2020/12/06 08:26:51;;;;;;;44.72;39.60;;;;;;;6.20;66.20;100294.63;5067595;28;19920;-75
2020/12/06 08:29:17;;;;;;;47.08;42.08;;;;;;;6.29;65.97;100290.84;5066519;28;20086;-75
2020/12/06 08:31:45;;;;;;;49.85;44.83;;;;;;;6.35;65.86;100284.72;5065550;28;20028;-75
2020/12/06 08:34:16;;;;;;;44.22;39.33;;;;;;;6.33;66.06;100286.75;5070654;28;20063;-75
2020/12/06 08:36:42;;;;;;;43.53;37.47;;;;;;;6.48;65.65;100280.56;5065550;28;20045;-76
2020/12/06 08:39:21;;;;;;;51.47;46.38;;;;;;;6.50;65.79;100282.03;5068714;28;20479;-76
2020/12/06 08:41:47;;;;;;;48.28;43.15;;;;;;;6.55;65.75;100281.47;5066158;28;20057;-75
2020/12/06 08:44:13;;;;;;;45.50;40.88;;;;;;;6.55;65.58;100284.19;5065848;28;20098;-75
2020/12/06 08:46:49;;;;;;;50.45;45.35;;;;;;;6.42;65.75;100292.91;5064907;28;20411;-75
2020/12/06 08:49:17;;;;;;;49.97;44.83;;;;;;;6.57;65.66;100303.75;5060341;28;20029;-76
2020/12/06 08:51:53;;;;;;;59.70;53.95;;;;;;;6.66;65.70;100312.59;5064972;28;20055;-76
2020/12/06 08:54:32;;;;;;;54.67;49.60;;;;;;;6.59;65.96;100318.75;5085991;28;20040;-76
2020/12/06 08:57:08;;;;;;;54.88;49.60;;;;;;;6.48;66.03;100318.38;5066367;28;20043;-75
2020/12/06 08:59:38;;;;;;;58.60;53.00;;;;;;;6.66;66.17;100315.31;5081235;28;20482;-76
2020/12/06 09:02:04;;;;;;;66.10;60.15;;;;;;;6.77;65.59;100315.72;5065822;28;20104;-75
2020/12/06 09:04:32;;;;;;;58.70;53.08;;;;;;;6.78;65.73;100320.09;5066731;28;20032;-76
2020/12/06 09:06:57;;;;;;;45.03;40.30;;;;;;;6.80;65.93;100318.03;5066507;28;20040;-76
2020/12/06 09:09:23;;;;;;;55.65;50.45;;;;;;;6.86;65.74;100321.88;5067121;28;20016;-76
2020/12/06 09:11:52;;;;;;;55.33;50.00;;;;;;;6.69;65.95;100318.50;5068056;28;20752;-76
2020/12/06 09:14:18;;;;;;;51.22;46.13;;;;;;;6.92;65.50;100317.56;5067104;28;20043;-75
2020/12/06 09:16:43;;;;;;;49.17;43.97;;;;;;;6.93;65.69;100314.69;5071288;28;20024;-76
2020/12/06 09:19:08;;;;;;;48.55;43.55;;;;;;;6.91;65.89;100310.50;5064520;28;20029;-76
2020/12/06 09:21:34;;;;;;;47.83;43.13;;;;;;;6.87;66.36;100314.59;5069636;28;20047;-75
2020/12/06 09:23:59;;;;;;;50.88;45.65;;;;;;;6.84;66.20;100306.84;5067410;28;20025;-75
2020/12/06 09:26:24;;;;;;;42.33;37.90;;;;;;;6.95;66.16;100309.09;5065597;28;20494;-76
2020/12/06 09:28:50;;;;;;;45.55;40.65;;;;;;;7.14;65.70;100299.59;5066126;28;20085;-76
2020/12/06 09:31:15;;;;;;;48.28;41.97;;;;;;;6.99;66.12;100286.91;5066406;28;20024;-76
2020/12/06 09:33:40;;;;;;;47.67;42.80;;;;;;;7.14;65.75;100286.91;5067532;28;20028;-75
2020/12/06 09:36:06;;;;;;;44.33;39.53;;;;;;;7.19;65.53;100289.06;5066084;28;20509;-76
2020/12/06 09:38:31;;;;;;;38.75;34.60;;;;;;;7.46;65.03;100282.13;5064799;28;20052;-76
2020/12/06 09:40:57;;;;;;;38.55;34.42;;;;;;;7.40;64.88;100280.19;5066091;28;20043;-76
2020/12/06 09:43:22;;;;;;;40.90;36.45;;;;;;;7.44;64.96;100270.63;5067657;28;20044;-76
2020/12/06 09:45:48;;;;;;;42.63;33.55;;;;;;;7.35;64.60;100275.34;5065462;28;20116;-76
2020/12/06 09:48:13;;;;;;;42.70;37.17;;;;;;;7.44;64.87;100278.75;5065773;28;21690;-76
2020/12/06 09:50:39;;;;;;;36.38;31.20;;;;;;;7.55;64.35;100282.81;5066238;28;20037;-76
2020/12/06 09:53:05;;;;;;;42.88;37.85;;;;;;;7.57;64.48;100288.03;5069248;28;20111;-76
2020/12/06 09:55:30;;;;;;;37.10;33.00;;;;;;;7.41;64.62;100289.13;5066139;28;20043;-77
2020/12/06 09:57:55;;;;;;;40.75;36.35;;;;;;;7.53;64.42;100284.91;5066402;28;20077;-76
2020/12/06 10:00:21;;;;;;;44.35;39.55;;;;;;;7.46;64.87;100286.66;5064729;28;20040;-76
2020/12/06 10:02:46;;;;;;;39.53;35.35;;;;;;;7.59;64.41;100286.00;5067615;28;20688;-76
2020/12/06 10:05:12;;;;;;;41.83;37.33;;;;;;;7.45;64.64;100285.00;5065763;28;20036;-76
2020/12/06 10:07:38;;;;;;;48.75;40.60;;;;;;;7.46;64.61;100273.16;5048546;28;20040;-75
2020/12/06 10:10:05;;;;;;;46.03;41.33;;;;;;;7.59;64.24;100275.19;5062452;28;20058;-75
2020/12/06 10:12:30;;;;;;;38.47;34.30;;;;;;;7.66;63.93;100273.38;5065193;28;20036;-76
2020/12/06 10:14:56;;;;;;;45.20;38.88;;;;;;;7.74;63.83;100278.69;5065466;28;20028;-76
2020/12/06 10:17:21;;;;;;;47.22;42.33;;;;;;;7.65;63.73;100274.41;5065476;28;20036;-75
2020/12/06 10:19:47;;;;;;;39.42;34.95;;;;;;;7.43;64.40;100278.94;5065683;28;20032;-75
2020/12/06 10:22:12;;;;;;;38.72;34.47;;;;;;;7.79;63.73;100287.06;5066046;28;20040;-76
2020/12/06 10:24:37;;;;;;;38.90;33.95;;;;;;;7.80;63.62;100282.47;5070488;28;20147;-76
2020/12/06 10:27:03;;;;;;;46.33;41.33;;;;;;;7.84;63.88;100281.06;5067971;28;20043;-76
2020/12/06 10:29:28;;;;;;;42.30;37.72;;;;;;;7.93;63.67;100260.97;5065024;28;20063;-76
2020/12/06 10:31:55;;;;;;;47.97;42.83;;;;;;;8.06;63.24;100233.16;5063079;28;20032;-76
2020/12/06 10:34:22;;;;;;;40.08;35.15;;;;;;;8.10;62.92;100218.19;5066138;28;20562;-76
2020/12/06 10:36:49;;;;;;;38.35;32.47;;;;;;;8.17;62.78;100205.56;5066112;28;20036;-76
2020/12/06 10:39:15;;;;;;;42.22;34.83;;;;;;;8.34;62.58;100210.66;5067318;28;20035;-76
2020/12/06 10:41:40;;;;;;;42.85;37.25;;;;;;;8.36;62.20;100200.50;5062827;28;20048;-76
2020/12/06 10:44:05;;;;;;;44.83;38.67;;;;;;;8.50;61.85;100206.88;5064115;28;20083;-76
2020/12/06 10:46:31;;;;;;;43.33;38.63;;;;;;;8.50;61.95;100204.97;5044032;28;20041;-76
2020/12/06 10:48:56;;;;;;;40.28;35.88;;;;;;;8.51;61.46;100209.38;5065867;28;20078;-76
2020/12/06 10:51:21;;;;;;;42.75;38.10;;;;;;;8.51;61.35;100203.09;5066229;28;20467;-76
2020/12/06 10:53:47;;;;;;;42.95;36.17;;;;;;;8.39;61.44;100200.91;5067126;28;20032;-76
2020/12/06 10:56:12;;;;;;;41.30;35.50;;;;;;;8.32;61.76;100215.44;5065371;28;20028;-76
2020/12/06 10:58:38;;;;;;;47.13;39.10;;;;;;;8.39;61.63;100219.88;5065162;28;20031;-76
2020/12/06 11:01:03;;;;;;;40.88;36.53;;;;;;;8.42;61.35;100215.94;5064867;28;20101;-76
2020/12/06 11:03:29;;;;;;;43.50;38.70;;;;;;;8.46;61.26;100216.41;5063357;28;20123;-76
2020/12/06 11:05:54;;;;;;;40.78;35.95;;;;;;;8.25;62.01;100210.81;5066327;28;20029;-76
2020/12/06 11:08:23;;;;;;;43.15;37.05;;;;;;;8.28;62.22;100214.16;5065637;28;20036;-76
2020/12/06 11:10:48;;;;;;;48.50;43.55;;;;;;;8.24;62.45;100219.16;5066766;28;20039;-76
2020/12/06 11:13:14;;;;;;;46.20;39.92;;;;;;;8.27;62.45;100216.03;5062764;28;20040;-76
2020/12/06 11:15:39;;;;;;;50.78;45.28;;;;;;;8.23;62.64;100210.19;5067105;28;20025;-76